sensor_id;sensor_type;location;lat;lon;timestamp;P1;durP1;ratioP1;P2;durP2;ratioP2
9974;SDS011;5028;50.974;4.968;2022-11-25T00:00:18;14.27;;;3.43;;
9974;SDS011;5028;50.974;4.968;2022-11-25T00:02:55;8.40;;;2.77;;
9974;SDS011;5028;50.974;4.968;2022-11-25T00:05:24;12.43;;;3.27;;
9974;SDS011;5028;50.974;4.968;2022-11-25T00:08:00;14.63;;;2.80;;
9974;SDS011;5028;50.974;4.968;2022-11-25T00:10:29;11.20;;;3.07;;
9974;SDS011;5028;50.974;4.968;2022-11-25T00:13:04;10.13;;;3.33;;
9974;SDS011;5028;50.974;4.968;2022-11-25T00:15:33;11.87;;;3.60;;
9974;SDS011;5028;50.974;4.968;2022-11-25T00:18:10;14.87;;;3.40;;
9974;SDS011;5028;50.974;4.968;2022-11-25T00:20:45;11.17;;;3.13;;
9974;SDS011;5028;50.974;4.968;2022-11-25T00:23:19;10.27;;;2.90;;
9974;SDS011;5028;50.974;4.968;2022-11-25T00:25:48;13.27;;;2.90;;
9974;SDS011;5028;50.974;4.968;2022-11-25T00:28:23;9.07;;;2.90;;
9974;SDS011;5028;50.974;4.968;2022-11-25T00:30:54;17.57;;;3.60;;
9974;SDS011;5028;50.974;4.968;2022-11-25T00:33:30;10.87;;;3.23;;
9974;SDS011;5028;50.974;4.968;2022-11-25T00:35:59;12.23;;;3.27;;
9974;SDS011;5028;50.974;4.968;2022-11-25T00:38:36;11.90;;;2.77;;
9974;SDS011;5028;50.974;4.968;2022-11-25T00:41:04;13.87;;;3.33;;
9974;SDS011;5028;50.974;4.968;2022-11-25T00:43:55;8.40;;;2.57;;
9974;SDS011;5028;50.974;4.968;2022-11-25T00:46:48;11.93;;;3.00;;
9974;SDS011;5028;50.974;4.968;2022-11-25T00:49:18;9.60;;;2.67;;
9974;SDS011;5028;50.974;4.968;2022-11-25T00:51:54;13.00;;;3.30;;
9974;SDS011;5028;50.974;4.968;2022-11-25T00:54:22;10.77;;;2.90;;
9974;SDS011;5028;50.974;4.968;2022-11-25T00:56:51;9.47;;;3.10;;
9974;SDS011;5028;50.974;4.968;2022-11-25T00:59:25;13.30;;;3.30;;
9974;SDS011;5028;50.974;4.968;2022-11-25T01:01:54;12.67;;;3.30;;
9974;SDS011;5028;50.974;4.968;2022-11-25T01:04:31;10.63;;;2.97;;
9974;SDS011;5028;50.974;4.968;2022-11-25T01:07:00;8.23;;;3.17;;
9974;SDS011;5028;50.974;4.968;2022-11-25T01:09:36;11.07;;;3.20;;
9974;SDS011;5028;50.974;4.968;2022-11-25T01:12:04;11.03;;;3.10;;
9974;SDS011;5028;50.974;4.968;2022-11-25T01:14:46;15.97;;;3.10;;
9974;SDS011;5028;50.974;4.968;2022-11-25T01:17:27;10.13;;;3.03;;
9974;SDS011;5028;50.974;4.968;2022-11-25T01:19:57;9.23;;;3.27;;
9974;SDS011;5028;50.974;4.968;2022-11-25T01:22:32;10.60;;;3.43;;
9974;SDS011;5028;50.974;4.968;2022-11-25T01:25:01;11.97;;;3.37;;
9974;SDS011;5028;50.974;4.968;2022-11-25T01:27:36;7.07;;;2.27;;
9974;SDS011;5028;50.974;4.968;2022-11-25T01:30:08;11.07;;;3.13;;
9974;SDS011;5028;50.974;4.968;2022-11-25T01:32:43;12.40;;;3.57;;
9974;SDS011;5028;50.974;4.968;2022-11-25T01:35:13;12.20;;;3.07;;
9974;SDS011;5028;50.974;4.968;2022-11-25T01:37:48;13.10;;;2.93;;
9974;SDS011;5028;50.974;4.968;2022-11-25T01:40:17;5.27;;;1.50;;
9974;SDS011;5028;50.974;4.968;2022-11-25T01:42:51;5.53;;;1.60;;
9974;SDS011;5028;50.974;4.968;2022-11-25T01:45:30;5.07;;;1.43;;
9974;SDS011;5028;50.974;4.968;2022-11-25T01:48:10;4.00;;;1.30;;
9974;SDS011;5028;50.974;4.968;2022-11-25T01:50:45;4.90;;;1.40;;
9974;SDS011;5028;50.974;4.968;2022-11-25T01:53:22;2.27;;;1.07;;
9974;SDS011;5028;50.974;4.968;2022-11-25T01:55:52;3.63;;;1.13;;
9974;SDS011;5028;50.974;4.968;2022-11-25T01:58:32;3.07;;;1.10;;
9974;SDS011;5028;50.974;4.968;2022-11-25T02:01:04;3.23;;;1.07;;
9974;SDS011;5028;50.974;4.968;2022-11-25T02:03:41;1.87;;;0.80;;
9974;SDS011;5028;50.974;4.968;2022-11-25T02:06:15;3.67;;;1.23;;
9974;SDS011;5028;50.974;4.968;2022-11-25T02:08:57;4.07;;;1.30;;
9974;SDS011;5028;50.974;4.968;2022-11-25T02:11:31;4.90;;;1.10;;
9974;SDS011;5028;50.974;4.968;2022-11-25T02:14:09;3.33;;;1.00;;
9974;SDS011;5028;50.974;4.968;2022-11-25T02:16:45;4.07;;;1.20;;
9974;SDS011;5028;50.974;4.968;2022-11-25T02:19:21;3.63;;;1.00;;
9974;SDS011;5028;50.974;4.968;2022-11-25T02:21:55;3.67;;;1.00;;
9974;SDS011;5028;50.974;4.968;2022-11-25T02:24:37;4.30;;;1.20;;
9974;SDS011;5028;50.974;4.968;2022-11-25T02:27:11;3.23;;;1.10;;
9974;SDS011;5028;50.974;4.968;2022-11-25T02:29:46;3.60;;;1.43;;
9974;SDS011;5028;50.974;4.968;2022-11-25T02:32:19;4.57;;;2.40;;
9974;SDS011;5028;50.974;4.968;2022-11-25T02:34:55;2.63;;;1.27;;
9974;SDS011;5028;50.974;4.968;2022-11-25T02:37:23;2.63;;;1.10;;
9974;SDS011;5028;50.974;4.968;2022-11-25T02:39:57;3.53;;;1.00;;
9974;SDS011;5028;50.974;4.968;2022-11-25T02:42:27;2.90;;;1.00;;
9974;SDS011;5028;50.974;4.968;2022-11-25T02:45:04;2.90;;;1.03;;
9974;SDS011;5028;50.974;4.968;2022-11-25T02:47:34;2.13;;;0.77;;
9974;SDS011;5028;50.974;4.968;2022-11-25T02:50:10;2.97;;;1.17;;
9974;SDS011;5028;50.974;4.968;2022-11-25T02:52:39;1.33;;;0.77;;
9974;SDS011;5028;50.974;4.968;2022-11-25T02:55:15;2.87;;;1.10;;
9974;SDS011;5028;50.974;4.968;2022-11-25T02:57:44;2.83;;;1.03;;
9974;SDS011;5028;50.974;4.968;2022-11-25T03:00:20;1.97;;;1.00;;
9974;SDS011;5028;50.974;4.968;2022-11-25T03:02:49;3.03;;;1.10;;
9974;SDS011;5028;50.974;4.968;2022-11-25T03:05:25;1.93;;;0.90;;
9974;SDS011;5028;50.974;4.968;2022-11-25T03:07:54;1.93;;;0.87;;
9974;SDS011;5028;50.974;4.968;2022-11-25T03:10:29;1.40;;;0.87;;
9974;SDS011;5028;50.974;4.968;2022-11-25T03:12:59;4.07;;;1.00;;
9974;SDS011;5028;50.974;4.968;2022-11-25T03:15:34;2.87;;;1.27;;
9974;SDS011;5028;50.974;4.968;2022-11-25T03:18:10;1.67;;;0.80;;
9974;SDS011;5028;50.974;4.968;2022-11-25T03:20:44;1.47;;;0.70;;
9974;SDS011;5028;50.974;4.968;2022-11-25T03:23:13;1.77;;;0.87;;
9974;SDS011;5028;50.974;4.968;2022-11-25T03:25:48;3.73;;;1.00;;
9974;SDS011;5028;50.974;4.968;2022-11-25T03:28:17;2.00;;;0.70;;
9974;SDS011;5028;50.974;4.968;2022-11-25T03:30:53;2.30;;;0.90;;
9974;SDS011;5028;50.974;4.968;2022-11-25T03:33:21;1.87;;;1.00;;
9974;SDS011;5028;50.974;4.968;2022-11-25T03:35:55;2.20;;;0.93;;
9974;SDS011;5028;50.974;4.968;2022-11-25T03:38:24;2.23;;;0.80;;
9974;SDS011;5028;50.974;4.968;2022-11-25T03:40:59;1.77;;;0.87;;
9974;SDS011;5028;50.974;4.968;2022-11-25T03:43:28;1.93;;;1.00;;
9974;SDS011;5028;50.974;4.968;2022-11-25T03:46:05;2.50;;;1.00;;
9974;SDS011;5028;50.974;4.968;2022-11-25T03:48:33;2.93;;;1.10;;
9974;SDS011;5028;50.974;4.968;2022-11-25T03:51:08;3.40;;;1.10;;
9974;SDS011;5028;50.974;4.968;2022-11-25T03:53:36;2.17;;;1.17;;
9974;SDS011;5028;50.974;4.968;2022-11-25T03:56:11;4.47;;;1.40;;
9974;SDS011;5028;50.974;4.968;2022-11-25T03:58:41;4.03;;;1.50;;
9974;SDS011;5028;50.974;4.968;2022-11-25T04:01:16;3.80;;;1.67;;
9974;SDS011;5028;50.974;4.968;2022-11-25T04:03:45;4.40;;;1.60;;
9974;SDS011;5028;50.974;4.968;2022-11-25T04:06:21;3.93;;;1.67;;
9974;SDS011;5028;50.974;4.968;2022-11-25T04:08:49;4.57;;;1.70;;
9974;SDS011;5028;50.974;4.968;2022-11-25T04:11:25;3.57;;;1.47;;
9974;SDS011;5028;50.974;4.968;2022-11-25T04:14:14;5.73;;;1.67;;
9974;SDS011;5028;50.974;4.968;2022-11-25T04:16:55;4.97;;;1.93;;
9974;SDS011;5028;50.974;4.968;2022-11-25T04:19:37;5.00;;;2.17;;
9974;SDS011;5028;50.974;4.968;2022-11-25T04:22:13;6.93;;;1.97;;
9974;SDS011;5028;50.974;4.968;2022-11-25T04:24:41;4.67;;;1.77;;
9974;SDS011;5028;50.974;4.968;2022-11-25T04:27:17;6.03;;;2.10;;
9974;SDS011;5028;50.974;4.968;2022-11-25T04:29:47;5.67;;;1.90;;
9974;SDS011;5028;50.974;4.968;2022-11-25T04:32:22;5.57;;;2.17;;
9974;SDS011;5028;50.974;4.968;2022-11-25T04:34:51;6.40;;;2.20;;
9974;SDS011;5028;50.974;4.968;2022-11-25T04:37:26;5.33;;;2.17;;
9974;SDS011;5028;50.974;4.968;2022-11-25T04:39:54;7.13;;;2.20;;
9974;SDS011;5028;50.974;4.968;2022-11-25T04:42:29;7.33;;;2.17;;
9974;SDS011;5028;50.974;4.968;2022-11-25T04:45:04;7.80;;;2.40;;
9974;SDS011;5028;50.974;4.968;2022-11-25T04:47:49;4.63;;;2.10;;
9974;SDS011;5028;50.974;4.968;2022-11-25T04:50:18;8.37;;;2.53;;
9974;SDS011;5028;50.974;4.968;2022-11-25T04:52:55;6.57;;;2.10;;
9974;SDS011;5028;50.974;4.968;2022-11-25T04:55:23;5.67;;;2.23;;
9974;SDS011;5028;50.974;4.968;2022-11-25T04:57:58;8.00;;;2.53;;
9974;SDS011;5028;50.974;4.968;2022-11-25T05:00:28;7.70;;;2.37;;
9974;SDS011;5028;50.974;4.968;2022-11-25T05:03:02;7.07;;;2.23;;
9974;SDS011;5028;50.974;4.968;2022-11-25T05:05:31;7.97;;;2.37;;
9974;SDS011;5028;50.974;4.968;2022-11-25T05:08:06;7.03;;;2.60;;
9974;SDS011;5028;50.974;4.968;2022-11-25T05:10:34;7.10;;;2.43;;
9974;SDS011;5028;50.974;4.968;2022-11-25T05:13:08;10.53;;;3.00;;
9974;SDS011;5028;50.974;4.968;2022-11-25T05:15:45;7.20;;;2.47;;
9974;SDS011;5028;50.974;4.968;2022-11-25T05:18:27;6.93;;;2.50;;
9974;SDS011;5028;50.974;4.968;2022-11-25T05:20:59;8.00;;;2.50;;
9974;SDS011;5028;50.974;4.968;2022-11-25T05:23:35;6.07;;;2.10;;
9974;SDS011;5028;50.974;4.968;2022-11-25T05:26:03;6.17;;;2.20;;
9974;SDS011;5028;50.974;4.968;2022-11-25T05:28:39;7.17;;;2.60;;
9974;SDS011;5028;50.974;4.968;2022-11-25T05:31:09;7.73;;;2.73;;
9974;SDS011;5028;50.974;4.968;2022-11-25T05:33:44;8.93;;;2.70;;
9974;SDS011;5028;50.974;4.968;2022-11-25T05:36:12;12.53;;;3.20;;
9974;SDS011;5028;50.974;4.968;2022-11-25T05:38:47;10.00;;;2.57;;
9974;SDS011;5028;50.974;4.968;2022-11-25T05:41:15;7.93;;;2.70;;
9974;SDS011;5028;50.974;4.968;2022-11-25T05:43:51;6.80;;;2.70;;
9974;SDS011;5028;50.974;4.968;2022-11-25T05:46:21;6.63;;;2.53;;
9974;SDS011;5028;50.974;4.968;2022-11-25T05:48:56;5.50;;;2.43;;
9974;SDS011;5028;50.974;4.968;2022-11-25T05:51:25;9.00;;;3.00;;
9974;SDS011;5028;50.974;4.968;2022-11-25T05:54:01;7.70;;;2.63;;
9974;SDS011;5028;50.974;4.968;2022-11-25T05:56:29;6.00;;;2.53;;
9974;SDS011;5028;50.974;4.968;2022-11-25T05:59:04;9.93;;;2.80;;
9974;SDS011;5028;50.974;4.968;2022-11-25T06:01:34;5.57;;;2.20;;
9974;SDS011;5028;50.974;4.968;2022-11-25T06:04:09;9.07;;;2.57;;
9974;SDS011;5028;50.974;4.968;2022-11-25T06:06:38;5.37;;;2.43;;
9974;SDS011;5028;50.974;4.968;2022-11-25T06:09:13;8.60;;;2.30;;
9974;SDS011;5028;50.974;4.968;2022-11-25T06:11:41;6.73;;;2.10;;
9974;SDS011;5028;50.974;4.968;2022-11-25T06:14:16;7.93;;;2.33;;
9974;SDS011;5028;50.974;4.968;2022-11-25T06:16:52;5.03;;;2.50;;
9974;SDS011;5028;50.974;4.968;2022-11-25T06:19:27;9.83;;;2.70;;
9974;SDS011;5028;50.974;4.968;2022-11-25T06:21:55;8.97;;;2.57;;
9974;SDS011;5028;50.974;4.968;2022-11-25T06:24:30;8.23;;;2.07;;
9974;SDS011;5028;50.974;4.968;2022-11-25T06:26:58;9.57;;;2.80;;
9974;SDS011;5028;50.974;4.968;2022-11-25T06:29:33;7.73;;;2.50;;
9974;SDS011;5028;50.974;4.968;2022-11-25T06:32:03;9.23;;;2.80;;
9974;SDS011;5028;50.974;4.968;2022-11-25T06:34:39;8.03;;;2.97;;
9974;SDS011;5028;50.974;4.968;2022-11-25T06:37:08;10.03;;;3.13;;
9974;SDS011;5028;50.974;4.968;2022-11-25T06:39:43;7.10;;;2.23;;
9974;SDS011;5028;50.974;4.968;2022-11-25T06:42:11;6.57;;;2.60;;
9974;SDS011;5028;50.974;4.968;2022-11-25T06:44:40;9.27;;;2.77;;
9974;SDS011;5028;50.974;4.968;2022-11-25T06:47:16;6.83;;;2.37;;
9974;SDS011;5028;50.974;4.968;2022-11-25T06:49:45;7.57;;;2.40;;
9974;SDS011;5028;50.974;4.968;2022-11-25T06:52:20;7.63;;;2.40;;
9974;SDS011;5028;50.974;4.968;2022-11-25T06:54:49;6.37;;;2.23;;
9974;SDS011;5028;50.974;4.968;2022-11-25T06:57:26;5.30;;;2.27;;
9974;SDS011;5028;50.974;4.968;2022-11-25T06:59:54;8.13;;;2.57;;
9974;SDS011;5028;50.974;4.968;2022-11-25T07:02:31;9.90;;;3.10;;
9974;SDS011;5028;50.974;4.968;2022-11-25T07:05:09;9.97;;;2.83;;
9974;SDS011;5028;50.974;4.968;2022-11-25T07:07:44;10.53;;;2.80;;
9974;SDS011;5028;50.974;4.968;2022-11-25T07:10:19;7.63;;;2.20;;
9974;SDS011;5028;50.974;4.968;2022-11-25T07:12:47;10.27;;;2.67;;
9974;SDS011;5028;50.974;4.968;2022-11-25T07:15:22;11.50;;;3.40;;
9974;SDS011;5028;50.974;4.968;2022-11-25T07:17:51;6.43;;;2.50;;
9974;SDS011;5028;50.974;4.968;2022-11-25T07:20:33;8.07;;;2.80;;
9974;SDS011;5028;50.974;4.968;2022-11-25T07:23:01;9.67;;;2.80;;
9974;SDS011;5028;50.974;4.968;2022-11-25T07:25:36;10.20;;;3.30;;
9974;SDS011;5028;50.974;4.968;2022-11-25T07:28:04;10.47;;;2.80;;
9974;SDS011;5028;50.974;4.968;2022-11-25T07:30:39;12.60;;;3.33;;
9974;SDS011;5028;50.974;4.968;2022-11-25T07:33:28;9.83;;;3.27;;
9974;SDS011;5028;50.974;4.968;2022-11-25T07:36:03;9.37;;;3.00;;
9974;SDS011;5028;50.974;4.968;2022-11-25T07:38:33;10.50;;;3.10;;
9974;SDS011;5028;50.974;4.968;2022-11-25T07:41:13;10.10;;;2.90;;
9974;SDS011;5028;50.974;4.968;2022-11-25T07:43:42;12.37;;;3.23;;
9974;SDS011;5028;50.974;4.968;2022-11-25T07:46:19;10.97;;;3.53;;
9974;SDS011;5028;50.974;4.968;2022-11-25T07:48:54;9.03;;;3.63;;
9974;SDS011;5028;50.974;4.968;2022-11-25T07:51:33;10.80;;;2.90;;
9974;SDS011;5028;50.974;4.968;2022-11-25T07:54:03;10.50;;;2.97;;
9974;SDS011;5028;50.974;4.968;2022-11-25T07:56:40;10.60;;;3.37;;
9974;SDS011;5028;50.974;4.968;2022-11-25T07:59:10;13.27;;;3.10;;
9974;SDS011;5028;50.974;4.968;2022-11-25T08:01:47;11.30;;;3.03;;
9974;SDS011;5028;50.974;4.968;2022-11-25T08:04:18;14.23;;;3.40;;
9974;SDS011;5028;50.974;4.968;2022-11-25T08:06:53;10.07;;;2.93;;
9974;SDS011;5028;50.974;4.968;2022-11-25T08:09:21;9.33;;;3.03;;
9974;SDS011;5028;50.974;4.968;2022-11-25T08:11:57;10.70;;;3.33;;
9974;SDS011;5028;50.974;4.968;2022-11-25T08:14:25;12.30;;;3.50;;
9974;SDS011;5028;50.974;4.968;2022-11-25T08:17:07;13.37;;;3.50;;
9974;SDS011;5028;50.974;4.968;2022-11-25T08:19:50;10.50;;;3.17;;
9974;SDS011;5028;50.974;4.968;2022-11-25T08:22:25;10.43;;;3.10;;
9974;SDS011;5028;50.974;4.968;2022-11-25T08:24:54;10.70;;;2.90;;
9974;SDS011;5028;50.974;4.968;2022-11-25T08:27:29;12.27;;;3.10;;
9974;SDS011;5028;50.974;4.968;2022-11-25T08:29:57;12.63;;;3.17;;
9974;SDS011;5028;50.974;4.968;2022-11-25T08:32:35;10.70;;;3.30;;
9974;SDS011;5028;50.974;4.968;2022-11-25T08:35:06;11.63;;;3.10;;
9974;SDS011;5028;50.974;4.968;2022-11-25T08:37:42;12.30;;;4.10;;
9974;SDS011;5028;50.974;4.968;2022-11-25T08:40:10;13.70;;;3.20;;
9974;SDS011;5028;50.974;4.968;2022-11-25T08:42:46;8.73;;;3.30;;
9974;SDS011;5028;50.974;4.968;2022-11-25T08:45:14;8.77;;;2.87;;
9974;SDS011;5028;50.974;4.968;2022-11-25T08:47:49;10.93;;;3.17;;
9974;SDS011;5028;50.974;4.968;2022-11-25T08:50:19;12.43;;;3.13;;
9974;SDS011;5028;50.974;4.968;2022-11-25T08:52:55;11.93;;;3.33;;
9974;SDS011;5028;50.974;4.968;2022-11-25T08:55:25;13.77;;;3.40;;
9974;SDS011;5028;50.974;4.968;2022-11-25T08:58:00;13.10;;;3.23;;
9974;SDS011;5028;50.974;4.968;2022-11-25T09:00:29;12.60;;;3.80;;
9974;SDS011;5028;50.974;4.968;2022-11-25T09:03:04;10.70;;;3.30;;
9974;SDS011;5028;50.974;4.968;2022-11-25T09:05:35;12.40;;;3.77;;
9974;SDS011;5028;50.974;4.968;2022-11-25T09:08:14;12.30;;;3.23;;
9974;SDS011;5028;50.974;4.968;2022-11-25T09:10:43;14.93;;;3.67;;
9974;SDS011;5028;50.974;4.968;2022-11-25T09:13:18;11.43;;;3.13;;
9974;SDS011;5028;50.974;4.968;2022-11-25T09:15:46;12.50;;;3.60;;
9974;SDS011;5028;50.974;4.968;2022-11-25T09:18:29;11.40;;;3.50;;
9974;SDS011;5028;50.974;4.968;2022-11-25T09:20:59;9.20;;;3.73;;
9974;SDS011;5028;50.974;4.968;2022-11-25T09:23:41;10.03;;;4.00;;
9974;SDS011;5028;50.974;4.968;2022-11-25T09:26:15;11.97;;;3.67;;
9974;SDS011;5028;50.974;4.968;2022-11-25T09:28:58;11.83;;;3.83;;
9974;SDS011;5028;50.974;4.968;2022-11-25T09:31:33;11.80;;;4.47;;
9974;SDS011;5028;50.974;4.968;2022-11-25T09:34:14;8.70;;;3.03;;
9974;SDS011;5028;50.974;4.968;2022-11-25T09:36:44;7.80;;;3.50;;
9974;SDS011;5028;50.974;4.968;2022-11-25T09:39:21;11.57;;;3.70;;
9974;SDS011;5028;50.974;4.968;2022-11-25T09:42:06;12.67;;;3.80;;
9974;SDS011;5028;50.974;4.968;2022-11-25T09:45:14;9.47;;;3.40;;
9974;SDS011;5028;50.974;4.968;2022-11-25T09:51:03;9.10;;;3.20;;
9974;SDS011;5028;50.974;4.968;2022-11-25T09:53:51;9.97;;;3.37;;
9974;SDS011;5028;50.974;4.968;2022-11-25T09:56:27;14.50;;;4.00;;
9974;SDS011;5028;50.974;4.968;2022-11-25T09:59:06;8.27;;;2.87;;
9974;SDS011;5028;50.974;4.968;2022-11-25T10:01:48;9.90;;;3.40;;
9974;SDS011;5028;50.974;4.968;2022-11-25T10:04:41;9.63;;;3.37;;
9974;SDS011;5028;50.974;4.968;2022-11-25T10:07:16;7.27;;;2.60;;
9974;SDS011;5028;50.974;4.968;2022-11-25T10:09:56;14.33;;;3.87;;
9974;SDS011;5028;50.974;4.968;2022-11-25T10:12:29;10.63;;;2.73;;
9974;SDS011;5028;50.974;4.968;2022-11-25T10:15:11;8.53;;;2.93;;
9974;SDS011;5028;50.974;4.968;2022-11-25T10:17:51;10.87;;;5.50;;
9974;SDS011;5028;50.974;4.968;2022-11-25T10:20:37;18.70;;;11.13;;
9974;SDS011;5028;50.974;4.968;2022-11-25T10:23:19;10.00;;;4.63;;
9974;SDS011;5028;50.974;4.968;2022-11-25T10:26:00;8.73;;;3.03;;
9974;SDS011;5028;50.974;4.968;2022-11-25T10:28:36;8.00;;;2.70;;
9974;SDS011;5028;50.974;4.968;2022-11-25T10:31:14;7.63;;;2.80;;
9974;SDS011;5028;50.974;4.968;2022-11-25T10:33:47;11.80;;;3.90;;
9974;SDS011;5028;50.974;4.968;2022-11-25T10:36:25;8.23;;;2.83;;
9974;SDS011;5028;50.974;4.968;2022-11-25T10:38:58;6.03;;;2.07;;
9974;SDS011;5028;50.974;4.968;2022-11-25T10:41:42;6.20;;;2.30;;
9974;SDS011;5028;50.974;4.968;2022-11-25T10:44:18;7.90;;;2.60;;
9974;SDS011;5028;50.974;4.968;2022-11-25T10:47:03;7.83;;;2.47;;
9974;SDS011;5028;50.974;4.968;2022-11-25T10:49:44;7.73;;;2.40;;
9974;SDS011;5028;50.974;4.968;2022-11-25T10:52:32;6.27;;;2.37;;
9974;SDS011;5028;50.974;4.968;2022-11-25T10:55:07;5.50;;;2.17;;
9974;SDS011;5028;50.974;4.968;2022-11-25T10:57:46;4.73;;;1.83;;
9974;SDS011;5028;50.974;4.968;2022-11-25T11:00:25;5.73;;;1.90;;
9974;SDS011;5028;50.974;4.968;2022-11-25T11:03:11;4.80;;;1.63;;
9974;SDS011;5028;50.974;4.968;2022-11-25T11:05:45;3.33;;;1.50;;
9974;SDS011;5028;50.974;4.968;2022-11-25T11:08:22;3.00;;;1.53;;
9974;SDS011;5028;50.974;4.968;2022-11-25T11:11:08;4.67;;;1.30;;
9974;SDS011;5028;50.974;4.968;2022-11-25T11:13:58;1.90;;;1.10;;
9974;SDS011;5028;50.974;4.968;2022-11-25T11:16:39;2.60;;;1.30;;
9974;SDS011;5028;50.974;4.968;2022-11-25T11:19:24;2.30;;;1.30;;
9974;SDS011;5028;50.974;4.968;2022-11-25T11:21:55;3.67;;;1.37;;
9974;SDS011;5028;50.974;4.968;2022-11-25T11:24:32;2.53;;;1.23;;
9974;SDS011;5028;50.974;4.968;2022-11-25T11:27:05;3.60;;;1.30;;
9974;SDS011;5028;50.974;4.968;2022-11-25T11:29:42;3.93;;;1.37;;
9974;SDS011;5028;50.974;4.968;2022-11-25T11:32:17;4.30;;;1.50;;
9974;SDS011;5028;50.974;4.968;2022-11-25T11:34:58;3.20;;;1.60;;
9974;SDS011;5028;50.974;4.968;2022-11-25T11:37:38;3.33;;;1.33;;
9974;SDS011;5028;50.974;4.968;2022-11-25T11:40:18;4.67;;;1.53;;
9974;SDS011;5028;50.974;4.968;2022-11-25T11:42:56;2.80;;;1.20;;
9974;SDS011;5028;50.974;4.968;2022-11-25T11:45:48;2.97;;;1.43;;
9974;SDS011;5028;50.974;4.968;2022-11-25T11:48:38;3.27;;;1.30;;
9974;SDS011;5028;50.974;4.968;2022-11-25T11:51:20;5.90;;;1.60;;
9974;SDS011;5028;50.974;4.968;2022-11-25T11:53:59;5.27;;;1.63;;
9974;SDS011;5028;50.974;4.968;2022-11-25T11:56:42;3.50;;;1.47;;
9974;SDS011;5028;50.974;4.968;2022-11-25T12:02:24;4.53;;;1.70;;
9974;SDS011;5028;50.974;4.968;2022-11-25T12:05:13;4.33;;;1.40;;
9974;SDS011;5028;50.974;4.968;2022-11-25T12:07:56;4.70;;;1.53;;
9974;SDS011;5028;50.974;4.968;2022-11-25T12:10:32;6.33;;;1.97;;
9974;SDS011;5028;50.974;4.968;2022-11-25T12:13:13;6.73;;;1.80;;
9974;SDS011;5028;50.974;4.968;2022-11-25T12:15:47;4.43;;;1.80;;
9974;SDS011;5028;50.974;4.968;2022-11-25T12:18:34;8.20;;;2.37;;
9974;SDS011;5028;50.974;4.968;2022-11-25T12:21:23;6.17;;;1.90;;
9974;SDS011;5028;50.974;4.968;2022-11-25T12:24:09;4.97;;;1.80;;
9974;SDS011;5028;50.974;4.968;2022-11-25T12:26:44;7.30;;;2.03;;
9974;SDS011;5028;50.974;4.968;2022-11-25T12:29:27;5.80;;;1.90;;
9974;SDS011;5028;50.974;4.968;2022-11-25T12:32:06;5.23;;;2.20;;
9974;SDS011;5028;50.974;4.968;2022-11-25T12:34:57;5.53;;;2.03;;
9974;SDS011;5028;50.974;4.968;2022-11-25T12:37:34;5.43;;;2.20;;
9974;SDS011;5028;50.974;4.968;2022-11-25T12:40:17;5.87;;;2.03;;
9974;SDS011;5028;50.974;4.968;2022-11-25T12:42:51;5.87;;;2.17;;
9974;SDS011;5028;50.974;4.968;2022-11-25T12:45:36;5.17;;;1.90;;
9974;SDS011;5028;50.974;4.968;2022-11-25T12:48:07;6.40;;;1.90;;
9974;SDS011;5028;50.974;4.968;2022-11-25T12:50:51;6.30;;;2.10;;
9974;SDS011;5028;50.974;4.968;2022-11-25T12:53:26;5.50;;;1.80;;
9974;SDS011;5028;50.974;4.968;2022-11-25T12:56:12;6.77;;;2.40;;
9974;SDS011;5028;50.974;4.968;2022-11-25T12:58:48;7.07;;;2.30;;
9974;SDS011;5028;50.974;4.968;2022-11-25T13:01:43;6.53;;;1.83;;
9974;SDS011;5028;50.974;4.968;2022-11-25T13:04:27;6.67;;;2.17;;
9974;SDS011;5028;50.974;4.968;2022-11-25T13:07:50;8.50;;;2.30;;
9974;SDS011;5028;50.974;4.968;2022-11-25T13:10:35;8.80;;;2.43;;
9974;SDS011;5028;50.974;4.968;2022-11-25T13:13:31;6.63;;;2.23;;
9974;SDS011;5028;50.974;4.968;2022-11-25T13:16:08;6.37;;;2.43;;
9974;SDS011;5028;50.974;4.968;2022-11-25T13:18:52;10.60;;;2.90;;
9974;SDS011;5028;50.974;4.968;2022-11-25T13:21:22;5.77;;;2.30;;
9974;SDS011;5028;50.974;4.968;2022-11-25T13:24:02;8.67;;;2.20;;
9974;SDS011;5028;50.974;4.968;2022-11-25T13:26:34;7.60;;;2.70;;
9974;SDS011;5028;50.974;4.968;2022-11-25T13:32:30;7.50;;;2.60;;
9974;SDS011;5028;50.974;4.968;2022-11-25T13:41:46;9.33;;;2.83;;
9974;SDS011;5028;50.974;4.968;2022-11-25T13:44:20;8.83;;;2.80;;
9974;SDS011;5028;50.974;4.968;2022-11-25T13:47:29;7.90;;;2.70;;
9974;SDS011;5028;50.974;4.968;2022-11-25T13:50:17;11.87;;;2.80;;
9974;SDS011;5028;50.974;4.968;2022-11-25T13:53:15;7.20;;;3.03;;
9974;SDS011;5028;50.974;4.968;2022-11-25T13:55:53;8.33;;;3.10;;
9974;SDS011;5028;50.974;4.968;2022-11-25T13:58:55;9.83;;;3.10;;
9974;SDS011;5028;50.974;4.968;2022-11-25T14:01:54;9.27;;;2.97;;
9974;SDS011;5028;50.974;4.968;2022-11-25T14:05:02;10.33;;;2.90;;
9974;SDS011;5028;50.974;4.968;2022-11-25T14:07:49;9.87;;;3.30;;
9974;SDS011;5028;50.974;4.968;2022-11-25T14:10:37;10.23;;;3.20;;
9974;SDS011;5028;50.974;4.968;2022-11-25T14:13:22;9.90;;;3.20;;
9974;SDS011;5028;50.974;4.968;2022-11-25T14:19:17;11.37;;;3.30;;
9974;SDS011;5028;50.974;4.968;2022-11-25T14:22:22;7.07;;;2.63;;
9974;SDS011;5028;50.974;4.968;2022-11-25T14:25:13;13.17;;;3.53;;
9974;SDS011;5028;50.974;4.968;2022-11-25T14:27:47;9.80;;;3.23;;
9974;SDS011;5028;50.974;4.968;2022-11-25T14:30:29;11.37;;;3.13;;
9974;SDS011;5028;50.974;4.968;2022-11-25T14:33:00;10.27;;;3.57;;
9974;SDS011;5028;50.974;4.968;2022-11-25T14:35:39;12.57;;;3.90;;
9974;SDS011;5028;50.974;4.968;2022-11-25T14:38:11;11.93;;;3.60;;
9974;SDS011;5028;50.974;4.968;2022-11-25T14:40:50;13.00;;;3.10;;
9974;SDS011;5028;50.974;4.968;2022-11-25T14:43:24;12.43;;;3.00;;
9974;SDS011;5028;50.974;4.968;2022-11-25T14:46:09;10.03;;;3.03;;
9974;SDS011;5028;50.974;4.968;2022-11-25T14:48:41;9.87;;;3.07;;
9974;SDS011;5028;50.974;4.968;2022-11-25T14:51:18;12.53;;;3.60;;
9974;SDS011;5028;50.974;4.968;2022-11-25T14:53:47;8.07;;;2.90;;
9974;SDS011;5028;50.974;4.968;2022-11-25T14:56:25;12.30;;;3.40;;
9974;SDS011;5028;50.974;4.968;2022-11-25T14:58:55;14.67;;;3.53;;
9974;SDS011;5028;50.974;4.968;2022-11-25T15:01:32;13.10;;;3.47;;
9974;SDS011;5028;50.974;4.968;2022-11-25T15:04:02;10.40;;;3.23;;
9974;SDS011;5028;50.974;4.968;2022-11-25T15:06:42;10.10;;;3.00;;
9974;SDS011;5028;50.974;4.968;2022-11-25T15:09:17;10.53;;;3.67;;
9974;SDS011;5028;50.974;4.968;2022-11-25T15:11:56;11.87;;;3.37;;
9974;SDS011;5028;50.974;4.968;2022-11-25T15:14:28;8.37;;;3.23;;
9974;SDS011;5028;50.974;4.968;2022-11-25T15:17:16;14.80;;;3.80;;
9974;SDS011;5028;50.974;4.968;2022-11-25T15:20:09;12.50;;;3.70;;
9974;SDS011;5028;50.974;4.968;2022-11-25T15:22:50;11.83;;;3.20;;
9974;SDS011;5028;50.974;4.968;2022-11-25T15:25:20;10.63;;;3.47;;
9974;SDS011;5028;50.974;4.968;2022-11-25T15:27:55;12.77;;;4.80;;
9974;SDS011;5028;50.974;4.968;2022-11-25T15:30:24;11.03;;;3.73;;
9974;SDS011;5028;50.974;4.968;2022-11-25T15:33:02;13.03;;;5.10;;
9974;SDS011;5028;50.974;4.968;2022-11-25T15:35:31;11.60;;;3.90;;
9974;SDS011;5028;50.974;4.968;2022-11-25T15:38:17;12.50;;;3.73;;
9974;SDS011;5028;50.974;4.968;2022-11-25T15:40:53;9.97;;;3.33;;
9974;SDS011;5028;50.974;4.968;2022-11-25T15:43:29;10.30;;;3.53;;
9974;SDS011;5028;50.974;4.968;2022-11-25T15:45:59;10.40;;;3.57;;
9974;SDS011;5028;50.974;4.968;2022-11-25T15:48:36;13.30;;;3.67;;
9974;SDS011;5028;50.974;4.968;2022-11-25T15:51:15;13.37;;;4.00;;
9974;SDS011;5028;50.974;4.968;2022-11-25T15:54:14;11.60;;;3.77;;
9974;SDS011;5028;50.974;4.968;2022-11-25T15:56:47;13.50;;;4.17;;
9974;SDS011;5028;50.974;4.968;2022-11-25T15:59:40;13.43;;;4.43;;
9974;SDS011;5028;50.974;4.968;2022-11-25T16:02:33;26.97;;;16.60;;
9974;SDS011;5028;50.974;4.968;2022-11-25T16:05:17;27.93;;;20.43;;
9974;SDS011;5028;50.974;4.968;2022-11-25T16:08:00;31.63;;;24.23;;
9974;SDS011;5028;50.974;4.968;2022-11-25T16:11:08;12.93;;;7.67;;
9974;SDS011;5028;50.974;4.968;2022-11-25T16:13:47;11.67;;;5.07;;
9974;SDS011;5028;50.974;4.968;2022-11-25T16:16:20;18.27;;;10.83;;
9974;SDS011;5028;50.974;4.968;2022-11-25T16:19:13;22.10;;;13.10;;
9974;SDS011;5028;50.974;4.968;2022-11-25T16:22:03;19.37;;;9.30;;
9974;SDS011;5028;50.974;4.968;2022-11-25T16:24:39;16.57;;;6.07;;
9974;SDS011;5028;50.974;4.968;2022-11-25T16:27:22;12.63;;;5.83;;